sensor_id;sensor_type;location;lat;lon;timestamp;P1;durP1;ratioP1;P2;durP2;ratioP2
70477;SDS011;57956;53.362;-1.518;2023-05-07T00:00:31;4.00;;;1.00;;
70477;SDS011;57956;53.362;-1.518;2023-05-07T00:02:58;12.03;;;2.00;;
70477;SDS011;57956;53.362;-1.518;2023-05-07T00:05:24;3.20;;;1.30;;
70477;SDS011;57956;53.362;-1.518;2023-05-07T00:07:49;5.70;;;2.15;;
70477;SDS011;57956;53.362;-1.518;2023-05-07T00:10:15;2.63;;;1.13;;
70477;SDS011;57956;53.362;-1.518;2023-05-07T00:12:40;4.87;;;2.60;;
70477;SDS011;57956;53.362;-1.518;2023-05-07T00:15:05;5.60;;;1.83;;
70477;SDS011;57956;53.362;-1.518;2023-05-07T00:17:32;5.10;;;1.80;;
70477;SDS011;57956;53.362;-1.518;2023-05-07T00:19:57;6.28;;;2.30;;
70477;SDS011;57956;53.362;-1.518;2023-05-07T00:22:22;7.30;;;2.17;;
70477;SDS011;57956;53.362;-1.518;2023-05-07T00:24:48;7.43;;;1.03;;
70477;SDS011;57956;53.362;-1.518;2023-05-07T00:27:13;3.47;;;1.43;;
70477;SDS011;57956;53.362;-1.518;2023-05-07T00:29:38;4.27;;;2.00;;
70477;SDS011;57956;53.362;-1.518;2023-05-07T00:32:04;3.28;;;1.83;;
70477;SDS011;57956;53.362;-1.518;2023-05-07T00:34:29;3.30;;;1.83;;
70477;SDS011;57956;53.362;-1.518;2023-05-07T00:36:55;7.93;;;2.23;;
70477;SDS011;57956;53.362;-1.518;2023-05-07T00:39:20;4.10;;;2.13;;
70477;SDS011;57956;53.362;-1.518;2023-05-07T00:41:45;3.57;;;1.77;;
70477;SDS011;57956;53.362;-1.518;2023-05-07T00:44:10;2.90;;;1.77;;
70477;SDS011;57956;53.362;-1.518;2023-05-07T00:46:36;7.60;;;3.03;;
70477;SDS011;57956;53.362;-1.518;2023-05-07T00:49:01;5.33;;;2.03;;
70477;SDS011;57956;53.362;-1.518;2023-05-07T00:51:26;3.90;;;2.10;;
70477;SDS011;57956;53.362;-1.518;2023-05-07T00:53:52;8.10;;;2.80;;
70477;SDS011;57956;53.362;-1.518;2023-05-07T00:56:18;3.53;;;1.42;;
70477;SDS011;57956;53.362;-1.518;2023-05-07T00:58:43;5.77;;;2.10;;
70477;SDS011;57956;53.362;-1.518;2023-05-07T01:01:08;3.43;;;1.90;;
70477;SDS011;57956;53.362;-1.518;2023-05-07T01:03:34;3.47;;;1.30;;
70477;SDS011;57956;53.362;-1.518;2023-05-07T01:05:59;3.30;;;1.27;;
70477;SDS011;57956;53.362;-1.518;2023-05-07T01:08:24;5.70;;;2.35;;
70477;SDS011;57956;53.362;-1.518;2023-05-07T01:10:51;2.90;;;1.35;;
70477;SDS011;57956;53.362;-1.518;2023-05-07T01:13:17;3.17;;;1.20;;
70477;SDS011;57956;53.362;-1.518;2023-05-07T01:15:43;5.10;;;1.88;;
70477;SDS011;57956;53.362;-1.518;2023-05-07T01:18:08;4.33;;;1.77;;
70477;SDS011;57956;53.362;-1.518;2023-05-07T01:20:33;4.03;;;1.67;;
70477;SDS011;57956;53.362;-1.518;2023-05-07T01:22:59;2.97;;;1.57;;
70477;SDS011;57956;53.362;-1.518;2023-05-07T01:25:25;4.28;;;1.40;;
70477;SDS011;57956;53.362;-1.518;2023-05-07T01:27:50;4.47;;;0.90;;
70477;SDS011;57956;53.362;-1.518;2023-05-07T01:30:16;3.67;;;2.23;;
70477;SDS011;57956;53.362;-1.518;2023-05-07T01:32:43;3.23;;;1.10;;
70477;SDS011;57956;53.362;-1.518;2023-05-07T01:35:13;6.63;;;2.45;;
70477;SDS011;57956;53.362;-1.518;2023-05-07T01:37:40;3.90;;;1.55;;
70477;SDS011;57956;53.362;-1.518;2023-05-07T01:40:06;6.67;;;2.50;;
70477;SDS011;57956;53.362;-1.518;2023-05-07T01:42:32;2.92;;;0.90;;
70477;SDS011;57956;53.362;-1.518;2023-05-07T01:44:57;2.60;;;1.10;;
70477;SDS011;57956;53.362;-1.518;2023-05-07T01:47:22;4.03;;;2.43;;
70477;SDS011;57956;53.362;-1.518;2023-05-07T01:49:48;4.57;;;1.43;;
70477;SDS011;57956;53.362;-1.518;2023-05-07T01:52:13;3.90;;;1.47;;
70477;SDS011;57956;53.362;-1.518;2023-05-07T01:54:39;4.57;;;1.42;;
70477;SDS011;57956;53.362;-1.518;2023-05-07T01:57:04;6.87;;;2.33;;
70477;SDS011;57956;53.362;-1.518;2023-05-07T01:59:29;3.70;;;1.10;;
70477;SDS011;57956;53.362;-1.518;2023-05-07T02:01:55;2.80;;;1.47;;
70477;SDS011;57956;53.362;-1.518;2023-05-07T02:04:20;5.20;;;1.73;;
70477;SDS011;57956;53.362;-1.518;2023-05-07T02:06:45;5.13;;;2.13;;
70477;SDS011;57956;53.362;-1.518;2023-05-07T02:09:13;5.47;;;1.80;;
70477;SDS011;57956;53.362;-1.518;2023-05-07T02:11:39;4.10;;;1.60;;
70477;SDS011;57956;53.362;-1.518;2023-05-07T02:14:04;2.87;;;1.10;;
70477;SDS011;57956;53.362;-1.518;2023-05-07T02:16:30;2.20;;;0.70;;
70477;SDS011;57956;53.362;-1.518;2023-05-07T02:18:55;3.58;;;1.15;;
70477;SDS011;57956;53.362;-1.518;2023-05-07T02:21:21;7.43;;;2.70;;
70477;SDS011;57956;53.362;-1.518;2023-05-07T02:23:46;5.30;;;2.23;;
70477;SDS011;57956;53.362;-1.518;2023-05-07T02:26:11;4.27;;;1.30;;
70477;SDS011;57956;53.362;-1.518;2023-05-07T02:28:37;4.80;;;2.17;;
70477;SDS011;57956;53.362;-1.518;2023-05-07T02:31:05;4.17;;;1.70;;
70477;SDS011;57956;53.362;-1.518;2023-05-07T02:33:30;5.03;;;1.67;;
70477;SDS011;57956;53.362;-1.518;2023-05-07T02:35:55;2.83;;;1.85;;
70477;SDS011;57956;53.362;-1.518;2023-05-07T02:38:21;4.97;;;1.67;;
70477;SDS011;57956;53.362;-1.518;2023-05-07T02:40:46;4.17;;;2.20;;
70477;SDS011;57956;53.362;-1.518;2023-05-07T02:43:11;3.17;;;1.50;;
70477;SDS011;57956;53.362;-1.518;2023-05-07T02:45:37;2.93;;;1.20;;
70477;SDS011;57956;53.362;-1.518;2023-05-07T02:48:02;4.85;;;1.15;;
70477;SDS011;57956;53.362;-1.518;2023-05-07T02:50:28;3.60;;;1.63;;
70477;SDS011;57956;53.362;-1.518;2023-05-07T02:52:53;3.97;;;1.47;;
70477;SDS011;57956;53.362;-1.518;2023-05-07T02:55:18;4.03;;;0.87;;
70477;SDS011;57956;53.362;-1.518;2023-05-07T02:57:44;6.95;;;1.75;;
70477;SDS011;57956;53.362;-1.518;2023-05-07T03:00:10;2.47;;;1.20;;
70477;SDS011;57956;53.362;-1.518;2023-05-07T03:02:35;3.65;;;1.75;;
70477;SDS011;57956;53.362;-1.518;2023-05-07T03:05:01;4.00;;;1.37;;
70477;SDS011;57956;53.362;-1.518;2023-05-07T03:07:26;2.33;;;0.93;;
70477;SDS011;57956;53.362;-1.518;2023-05-07T03:09:51;4.40;;;1.20;;
70477;SDS011;57956;53.362;-1.518;2023-05-07T03:12:20;2.30;;;0.98;;
70477;SDS011;57956;53.362;-1.518;2023-05-07T03:14:45;4.23;;;1.10;;
70477;SDS011;57956;53.362;-1.518;2023-05-07T03:17:10;3.27;;;1.53;;
70477;SDS011;57956;53.362;-1.518;2023-05-07T03:19:35;3.17;;;1.47;;
70477;SDS011;57956;53.362;-1.518;2023-05-07T03:22:01;2.50;;;0.60;;
70477;SDS011;57956;53.362;-1.518;2023-05-07T03:24:26;2.70;;;0.77;;
70477;SDS011;57956;53.362;-1.518;2023-05-07T03:26:51;3.07;;;0.93;;
70477;SDS011;57956;53.362;-1.518;2023-05-07T03:29:16;4.97;;;1.80;;
70477;SDS011;57956;53.362;-1.518;2023-05-07T03:31:42;4.07;;;1.20;;
70477;SDS011;57956;53.362;-1.518;2023-05-07T03:34:07;4.07;;;1.90;;
70477;SDS011;57956;53.362;-1.518;2023-05-07T03:36:32;2.07;;;1.10;;
70477;SDS011;57956;53.362;-1.518;2023-05-07T03:38:57;3.57;;;1.13;;
70477;SDS011;57956;53.362;-1.518;2023-05-07T03:41:23;3.20;;;1.03;;
70477;SDS011;57956;53.362;-1.518;2023-05-07T03:43:48;4.10;;;1.87;;
70477;SDS011;57956;53.362;-1.518;2023-05-07T03:46:13;2.63;;;0.70;;
70477;SDS011;57956;53.362;-1.518;2023-05-07T03:48:38;5.10;;;1.30;;
70477;SDS011;57956;53.362;-1.518;2023-05-07T03:51:03;4.13;;;1.27;;
70477;SDS011;57956;53.362;-1.518;2023-05-07T03:53:29;4.03;;;1.33;;
70477;SDS011;57956;53.362;-1.518;2023-05-07T03:55:54;3.30;;;1.25;;
70477;SDS011;57956;53.362;-1.518;2023-05-07T03:58:19;4.50;;;1.97;;
70477;SDS011;57956;53.362;-1.518;2023-05-07T04:00:48;3.23;;;1.10;;
70477;SDS011;57956;53.362;-1.518;2023-05-07T04:03:13;3.15;;;1.23;;
70477;SDS011;57956;53.362;-1.518;2023-05-07T04:05:38;2.40;;;0.77;;
70477;SDS011;57956;53.362;-1.518;2023-05-07T04:08:04;3.87;;;1.13;;
70477;SDS011;57956;53.362;-1.518;2023-05-07T04:10:30;3.17;;;1.13;;
70477;SDS011;57956;53.362;-1.518;2023-05-07T04:12:55;2.73;;;1.30;;
70477;SDS011;57956;53.362;-1.518;2023-05-07T04:15:22;2.08;;;0.68;;
70477;SDS011;57956;53.362;-1.518;2023-05-07T04:17:47;3.80;;;1.20;;
70477;SDS011;57956;53.362;-1.518;2023-05-07T04:20:15;2.72;;;1.27;;
70477;SDS011;57956;53.362;-1.518;2023-05-07T04:22:41;2.20;;;0.88;;
70477;SDS011;57956;53.362;-1.518;2023-05-07T04:25:06;2.33;;;0.80;;
70477;SDS011;57956;53.362;-1.518;2023-05-07T04:27:33;3.03;;;1.10;;
70477;SDS011;57956;53.362;-1.518;2023-05-07T04:29:58;2.27;;;0.73;;
70477;SDS011;57956;53.362;-1.518;2023-05-07T04:32:23;1.77;;;0.50;;
70477;SDS011;57956;53.362;-1.518;2023-05-07T04:34:49;3.75;;;1.33;;
70477;SDS011;57956;53.362;-1.518;2023-05-07T04:37:15;5.67;;;1.67;;
70477;SDS011;57956;53.362;-1.518;2023-05-07T04:39:40;2.53;;;0.90;;
70477;SDS011;57956;53.362;-1.518;2023-05-07T04:42:05;2.00;;;0.37;;
70477;SDS011;57956;53.362;-1.518;2023-05-07T04:44:33;3.50;;;1.40;;
70477;SDS011;57956;53.362;-1.518;2023-05-07T04:46:59;1.77;;;0.43;;
70477;SDS011;57956;53.362;-1.518;2023-05-07T04:49:26;3.75;;;1.20;;
70477;SDS011;57956;53.362;-1.518;2023-05-07T04:51:51;2.57;;;1.03;;
70477;SDS011;57956;53.362;-1.518;2023-05-07T04:54:17;2.90;;;0.83;;
70477;SDS011;57956;53.362;-1.518;2023-05-07T04:56:42;2.10;;;0.47;;
70477;SDS011;57956;53.362;-1.518;2023-05-07T04:59:07;1.67;;;0.53;;
70477;SDS011;57956;53.362;-1.518;2023-05-07T05:01:35;1.20;;;0.40;;
70477;SDS011;57956;53.362;-1.518;2023-05-07T05:04:00;1.47;;;0.30;;
70477;SDS011;57956;53.362;-1.518;2023-05-07T05:06:25;4.37;;;1.60;;
70477;SDS011;57956;53.362;-1.518;2023-05-07T05:08:50;1.33;;;0.37;;
70477;SDS011;57956;53.362;-1.518;2023-05-07T05:11:16;2.50;;;0.73;;
70477;SDS011;57956;53.362;-1.518;2023-05-07T05:13:41;0.93;;;0.20;;
70477;SDS011;57956;53.362;-1.518;2023-05-07T05:16:06;1.70;;;0.50;;
70477;SDS011;57956;53.362;-1.518;2023-05-07T05:18:32;2.00;;;0.50;;
70477;SDS011;57956;53.362;-1.518;2023-05-07T05:20:57;1.43;;;0.47;;
70477;SDS011;57956;53.362;-1.518;2023-05-07T05:23:22;2.37;;;0.60;;
70477;SDS011;57956;53.362;-1.518;2023-05-07T05:25:47;1.43;;;0.67;;
70477;SDS011;57956;53.362;-1.518;2023-05-07T05:28:13;2.40;;;0.70;;
70477;SDS011;57956;53.362;-1.518;2023-05-07T05:30:38;1.57;;;0.47;;
70477;SDS011;57956;53.362;-1.518;2023-05-07T05:33:06;2.20;;;0.75;;
70477;SDS011;57956;53.362;-1.518;2023-05-07T05:35:31;1.00;;;0.30;;
70477;SDS011;57956;53.362;-1.518;2023-05-07T05:37:57;2.13;;;0.50;;
70477;SDS011;57956;53.362;-1.518;2023-05-07T05:40:22;2.20;;;0.50;;
70477;SDS011;57956;53.362;-1.518;2023-05-07T05:42:47;1.77;;;0.57;;
70477;SDS011;57956;53.362;-1.518;2023-05-07T05:45:12;2.13;;;0.73;;
70477;SDS011;57956;53.362;-1.518;2023-05-07T05:47:37;1.87;;;0.50;;
70477;SDS011;57956;53.362;-1.518;2023-05-07T05:50:04;2.17;;;0.55;;
70477;SDS011;57956;53.362;-1.518;2023-05-07T05:52:31;2.13;;;0.60;;
70477;SDS011;57956;53.362;-1.518;2023-05-07T05:54:56;1.27;;;0.37;;
70477;SDS011;57956;53.362;-1.518;2023-05-07T05:57:21;2.20;;;0.87;;
70477;SDS011;57956;53.362;-1.518;2023-05-07T05:59:47;1.93;;;0.40;;
70477;SDS011;57956;53.362;-1.518;2023-05-07T06:02:12;3.17;;;0.90;;
70477;SDS011;57956;53.362;-1.518;2023-05-07T06:04:37;1.57;;;0.50;;
70477;SDS011;57956;53.362;-1.518;2023-05-07T06:07:05;2.05;;;0.47;;
70477;SDS011;57956;53.362;-1.518;2023-05-07T06:09:31;2.10;;;0.47;;
70477;SDS011;57956;53.362;-1.518;2023-05-07T06:11:56;2.10;;;0.70;;
70477;SDS011;57956;53.362;-1.518;2023-05-07T06:14:21;3.10;;;1.20;;
70477;SDS011;57956;53.362;-1.518;2023-05-07T06:16:46;4.13;;;1.33;;
70477;SDS011;57956;53.362;-1.518;2023-05-07T06:19:11;4.40;;;1.15;;
70477;SDS011;57956;53.362;-1.518;2023-05-07T06:21:37;2.90;;;0.93;;
70477;SDS011;57956;53.362;-1.518;2023-05-07T06:24:02;2.80;;;1.20;;
70477;SDS011;57956;53.362;-1.518;2023-05-07T06:26:27;2.03;;;0.70;;
70477;SDS011;57956;53.362;-1.518;2023-05-07T06:28:52;2.33;;;0.50;;
70477;SDS011;57956;53.362;-1.518;2023-05-07T06:31:19;3.27;;;1.17;;
70477;SDS011;57956;53.362;-1.518;2023-05-07T06:33:47;2.42;;;0.95;;
70477;SDS011;57956;53.362;-1.518;2023-05-07T06:36:13;2.63;;;0.52;;
70477;SDS011;57956;53.362;-1.518;2023-05-07T06:38:38;3.23;;;1.30;;
70477;SDS011;57956;53.362;-1.518;2023-05-07T06:41:05;5.00;;;0.87;;
70477;SDS011;57956;53.362;-1.518;2023-05-07T06:43:30;4.20;;;1.85;;
70477;SDS011;57956;53.362;-1.518;2023-05-07T06:45:55;2.43;;;0.77;;
70477;SDS011;57956;53.362;-1.518;2023-05-07T06:48:20;2.60;;;1.30;;
70477;SDS011;57956;53.362;-1.518;2023-05-07T06:50:46;3.23;;;1.10;;
70477;SDS011;57956;53.362;-1.518;2023-05-07T06:53:11;2.83;;;1.00;;
70477;SDS011;57956;53.362;-1.518;2023-05-07T06:55:36;1.87;;;0.53;;
70477;SDS011;57956;53.362;-1.518;2023-05-07T06:58:03;2.15;;;0.60;;
70477;SDS011;57956;53.362;-1.518;2023-05-07T07:00:28;3.30;;;0.97;;
70477;SDS011;57956;53.362;-1.518;2023-05-07T07:02:54;2.17;;;0.97;;
70477;SDS011;57956;53.362;-1.518;2023-05-07T07:05:19;4.63;;;0.90;;
70477;SDS011;57956;53.362;-1.518;2023-05-07T07:07:45;2.13;;;0.87;;
70477;SDS011;57956;53.362;-1.518;2023-05-07T07:10:17;3.28;;;0.70;;
70477;SDS011;57956;53.362;-1.518;2023-05-07T07:12:42;2.50;;;0.97;;
70477;SDS011;57956;53.362;-1.518;2023-05-07T07:15:08;1.58;;;0.40;;
70477;SDS011;57956;53.362;-1.518;2023-05-07T07:17:34;1.80;;;0.53;;
70477;SDS011;57956;53.362;-1.518;2023-05-07T07:20:00;3.38;;;0.98;;
70477;SDS011;57956;53.362;-1.518;2023-05-07T07:22:25;2.37;;;0.77;;
70477;SDS011;57956;53.362;-1.518;2023-05-07T07:24:50;7.30;;;1.47;;
70477;SDS011;57956;53.362;-1.518;2023-05-07T07:27:16;2.00;;;0.60;;
70477;SDS011;57956;53.362;-1.518;2023-05-07T07:29:41;3.60;;;1.20;;
70477;SDS011;57956;53.362;-1.518;2023-05-07T07:32:06;3.07;;;1.20;;
70477;SDS011;57956;53.362;-1.518;2023-05-07T07:34:31;3.90;;;1.13;;
70477;SDS011;57956;53.362;-1.518;2023-05-07T07:36:57;3.73;;;1.17;;
70477;SDS011;57956;53.362;-1.518;2023-05-07T07:39:22;2.63;;;1.07;;
70477;SDS011;57956;53.362;-1.518;2023-05-07T07:41:47;3.10;;;1.10;;
70477;SDS011;57956;53.362;-1.518;2023-05-07T07:44:12;2.80;;;1.13;;
70477;SDS011;57956;53.362;-1.518;2023-05-07T07:46:38;2.63;;;0.93;;
70477;SDS011;57956;53.362;-1.518;2023-05-07T07:49:03;1.77;;;0.57;;
70477;SDS011;57956;53.362;-1.518;2023-05-07T07:51:28;2.63;;;0.80;;
70477;SDS011;57956;53.362;-1.518;2023-05-07T07:53:53;4.87;;;1.17;;
70477;SDS011;57956;53.362;-1.518;2023-05-07T07:56:19;1.83;;;0.50;;
70477;SDS011;57956;53.362;-1.518;2023-05-07T07:58:44;3.47;;;1.07;;
70477;SDS011;57956;53.362;-1.518;2023-05-07T08:01:10;4.53;;;0.77;;
70477;SDS011;57956;53.362;-1.518;2023-05-07T08:03:37;2.87;;;1.20;;
70477;SDS011;57956;53.362;-1.518;2023-05-07T08:06:03;4.85;;;1.80;;
70477;SDS011;57956;53.362;-1.518;2023-05-07T08:08:28;3.17;;;1.43;;
70477;SDS011;57956;53.362;-1.518;2023-05-07T08:10:53;3.47;;;1.17;;
70477;SDS011;57956;53.362;-1.518;2023-05-07T08:13:18;4.20;;;1.50;;
70477;SDS011;57956;53.362;-1.518;2023-05-07T08:15:44;2.30;;;0.82;;
70477;SDS011;57956;53.362;-1.518;2023-05-07T08:18:09;2.47;;;1.00;;
70477;SDS011;57956;53.362;-1.518;2023-05-07T08:20:34;2.20;;;0.43;;
70477;SDS011;57956;53.362;-1.518;2023-05-07T08:23:04;2.83;;;1.00;;
70477;SDS011;57956;53.362;-1.518;2023-05-07T08:25:29;3.17;;;0.88;;
70477;SDS011;57956;53.362;-1.518;2023-05-07T08:27:54;2.47;;;0.60;;
70477;SDS011;57956;53.362;-1.518;2023-05-07T08:30:20;2.60;;;0.77;;
70477;SDS011;57956;53.362;-1.518;2023-05-07T08:32:45;2.27;;;0.80;;
70477;SDS011;57956;53.362;-1.518;2023-05-07T08:35:10;2.53;;;0.70;;
70477;SDS011;57956;53.362;-1.518;2023-05-07T08:37:35;3.83;;;0.77;;
70477;SDS011;57956;53.362;-1.518;2023-05-07T08:40:01;3.57;;;0.87;;
70477;SDS011;57956;53.362;-1.518;2023-05-07T08:42:26;2.73;;;0.60;;
70477;SDS011;57956;53.362;-1.518;2023-05-07T08:44:53;2.70;;;0.73;;
70477;SDS011;57956;53.362;-1.518;2023-05-07T08:47:22;2.40;;;0.73;;
70477;SDS011;57956;53.362;-1.518;2023-05-07T08:49:47;1.48;;;0.50;;
70477;SDS011;57956;53.362;-1.518;2023-05-07T08:52:13;1.77;;;0.40;;
70477;SDS011;57956;53.362;-1.518;2023-05-07T08:54:38;2.03;;;0.60;;
70477;SDS011;57956;53.362;-1.518;2023-05-07T08:57:04;2.60;;;0.90;;
70477;SDS011;57956;53.362;-1.518;2023-05-07T08:59:29;2.07;;;0.73;;
70477;SDS011;57956;53.362;-1.518;2023-05-07T09:01:55;1.43;;;0.50;;
70477;SDS011;57956;53.362;-1.518;2023-05-07T09:04:20;1.80;;;0.47;;
70477;SDS011;57956;53.362;-1.518;2023-05-07T09:06:45;2.80;;;0.70;;
70477;SDS011;57956;53.362;-1.518;2023-05-07T09:09:14;2.80;;;0.47;;
70477;SDS011;57956;53.362;-1.518;2023-05-07T09:11:42;3.55;;;1.08;;
70477;SDS011;57956;53.362;-1.518;2023-05-07T09:14:07;2.80;;;1.00;;
70477;SDS011;57956;53.362;-1.518;2023-05-07T09:16:32;2.80;;;1.00;;
70477;SDS011;57956;53.362;-1.518;2023-05-07T09:18:58;1.73;;;0.47;;
70477;SDS011;57956;53.362;-1.518;2023-05-07T09:21:23;2.28;;;0.50;;
70477;SDS011;57956;53.362;-1.518;2023-05-07T09:23:50;2.90;;;0.97;;
70477;SDS011;57956;53.362;-1.518;2023-05-07T09:26:15;4.15;;;0.80;;
70477;SDS011;57956;53.362;-1.518;2023-05-07T09:28:41;3.13;;;0.70;;
70477;SDS011;57956;53.362;-1.518;2023-05-07T09:31:07;1.80;;;0.50;;
70477;SDS011;57956;53.362;-1.518;2023-05-07T09:33:32;2.78;;;0.98;;
70477;SDS011;57956;53.362;-1.518;2023-05-07T09:35:57;3.17;;;1.20;;
70477;SDS011;57956;53.362;-1.518;2023-05-07T09:38:22;1.83;;;0.77;;
70477;SDS011;57956;53.362;-1.518;2023-05-07T09:40:52;3.22;;;0.77;;
70477;SDS011;57956;53.362;-1.518;2023-05-07T09:43:26;2.73;;;0.90;;
70477;SDS011;57956;53.362;-1.518;2023-05-07T09:45:51;2.47;;;0.70;;
70477;SDS011;57956;53.362;-1.518;2023-05-07T09:48:16;2.58;;;0.93;;
70477;SDS011;57956;53.362;-1.518;2023-05-07T09:50:49;2.20;;;0.60;;
70477;SDS011;57956;53.362;-1.518;2023-05-07T09:53:16;1.98;;;0.32;;
70477;SDS011;57956;53.362;-1.518;2023-05-07T09:55:42;2.28;;;0.50;;
70477;SDS011;57956;53.362;-1.518;2023-05-07T09:58:08;2.28;;;0.75;;
70477;SDS011;57956;53.362;-1.518;2023-05-07T10:00:34;2.30;;;0.88;;
70477;SDS011;57956;53.362;-1.518;2023-05-07T10:02:59;1.67;;;0.63;;
70477;SDS011;57956;53.362;-1.518;2023-05-07T10:05:26;2.38;;;0.65;;
70477;SDS011;57956;53.362;-1.518;2023-05-07T10:07:52;1.80;;;0.50;;
70477;SDS011;57956;53.362;-1.518;2023-05-07T10:10:17;1.90;;;0.50;;
70477;SDS011;57956;53.362;-1.518;2023-05-07T10:12:43;2.53;;;0.60;;
70477;SDS011;57956;53.362;-1.518;2023-05-07T10:15:12;3.53;;;1.13;;
70477;SDS011;57956;53.362;-1.518;2023-05-07T10:17:38;3.40;;;1.30;;
70477;SDS011;57956;53.362;-1.518;2023-05-07T10:20:04;2.42;;;0.75;;
70477;SDS011;57956;53.362;-1.518;2023-05-07T10:22:31;2.45;;;0.55;;
70477;SDS011;57956;53.362;-1.518;2023-05-07T10:24:57;2.03;;;0.57;;
70477;SDS011;57956;53.362;-1.518;2023-05-07T10:27:24;2.20;;;0.60;;
70477;SDS011;57956;53.362;-1.518;2023-05-07T10:30:03;3.45;;;0.73;;
70477;SDS011;57956;53.362;-1.518;2023-05-07T10:32:51;3.10;;;0.60;;
70477;SDS011;57956;53.362;-1.518;2023-05-07T10:35:23;1.83;;;0.50;;
70477;SDS011;57956;53.362;-1.518;2023-05-07T10:37:49;3.08;;;0.40;;
70477;SDS011;57956;53.362;-1.518;2023-05-07T10:40:15;2.35;;;0.60;;
70477;SDS011;57956;53.362;-1.518;2023-05-07T10:45:20;1.55;;;0.32;;
70477;SDS011;57956;53.362;-1.518;2023-05-07T10:48:07;2.10;;;0.60;;
70477;SDS011;57956;53.362;-1.518;2023-05-07T10:50:31;2.60;;;0.97;;
70477;SDS011;57956;53.362;-1.518;2023-05-07T10:55:40;2.83;;;0.70;;
70477;SDS011;57956;53.362;-1.518;2023-05-07T11:00:46;2.60;;;0.85;;
70477;SDS011;57956;53.362;-1.518;2023-05-07T11:03:12;1.88;;;0.47;;
70477;SDS011;57956;53.362;-1.518;2023-05-07T11:05:37;2.03;;;0.77;;
70477;SDS011;57956;53.362;-1.518;2023-05-07T11:08:03;2.47;;;0.65;;
70477;SDS011;57956;53.362;-1.518;2023-05-07T11:10:48;2.20;;;0.60;;
70477;SDS011;57956;53.362;-1.518;2023-05-07T11:13:14;4.25;;;0.45;;
70477;SDS011;57956;53.362;-1.518;2023-05-07T11:15:40;6.40;;;0.70;;
70477;SDS011;57956;53.362;-1.518;2023-05-07T11:18:06;2.35;;;0.60;;
70477;SDS011;57956;53.362;-1.518;2023-05-07T11:26:06;2.58;;;0.57;;
70477;SDS011;57956;53.362;-1.518;2023-05-07T11:28:33;2.28;;;0.47;;
70477;SDS011;57956;53.362;-1.518;2023-05-07T11:31:01;2.07;;;0.63;;
70477;SDS011;57956;53.362;-1.518;2023-05-07T11:33:27;2.42;;;0.82;;
70477;SDS011;57956;53.362;-1.518;2023-05-07T11:35:56;1.60;;;0.20;;
70477;SDS011;57956;53.362;-1.518;2023-05-07T11:38:21;1.52;;;0.40;;
70477;SDS011;57956;53.362;-1.518;2023-05-07T11:40:53;2.30;;;0.63;;
70477;SDS011;57956;53.362;-1.518;2023-05-07T11:43:18;1.88;;;0.47;;
70477;SDS011;57956;53.362;-1.518;2023-05-07T11:45:44;2.40;;;0.47;;
70477;SDS011;57956;53.362;-1.518;2023-05-07T11:48:13;2.92;;;0.60;;
70477;SDS011;57956;53.362;-1.518;2023-05-07T11:53:16;1.70;;;0.53;;
70477;SDS011;57956;53.362;-1.518;2023-05-07T11:55:42;6.63;;;0.93;;
70477;SDS011;57956;53.362;-1.518;2023-05-07T11:58:07;6.60;;;0.77;;
70477;SDS011;57956;53.362;-1.518;2023-05-07T12:00:34;1.95;;;0.50;;
70477;SDS011;57956;53.362;-1.518;2023-05-07T12:03:03;1.67;;;0.47;;
70477;SDS011;57956;53.362;-1.518;2023-05-07T12:05:28;2.97;;;0.50;;
70477;SDS011;57956;53.362;-1.518;2023-05-07T12:07:55;1.65;;;0.40;;
70477;SDS011;57956;53.362;-1.518;2023-05-07T12:10:21;1.58;;;0.40;;
70477;SDS011;57956;53.362;-1.518;2023-05-07T12:12:46;1.80;;;0.40;;
70477;SDS011;57956;53.362;-1.518;2023-05-07T12:15:13;1.20;;;0.20;;
70477;SDS011;57956;53.362;-1.518;2023-05-07T12:17:40;1.33;;;0.22;;
70477;SDS011;57956;53.362;-1.518;2023-05-07T12:20:05;4.23;;;0.80;;
70477;SDS011;57956;53.362;-1.518;2023-05-07T12:22:31;2.15;;;0.50;;
70477;SDS011;57956;53.362;-1.518;2023-05-07T12:24:57;2.17;;;0.40;;
70477;SDS011;57956;53.362;-1.518;2023-05-07T12:27:22;1.80;;;0.50;;
70477;SDS011;57956;53.362;-1.518;2023-05-07T12:29:48;1.40;;;0.30;;
70477;SDS011;57956;53.362;-1.518;2023-05-07T12:32:14;3.17;;;0.60;;
70477;SDS011;57956;53.362;-1.518;2023-05-07T12:34:40;3.30;;;0.50;;
70477;SDS011;57956;53.362;-1.518;2023-05-07T12:37:05;2.60;;;0.50;;
70477;SDS011;57956;53.362;-1.518;2023-05-07T12:39:30;1.30;;;0.40;;
70477;SDS011;57956;53.362;-1.518;2023-05-07T12:41:58;1.87;;;0.37;;
70477;SDS011;57956;53.362;-1.518;2023-05-07T12:44:24;1.90;;;0.45;;
70477;SDS011;57956;53.362;-1.518;2023-05-07T12:46:49;1.60;;;0.30;;
70477;SDS011;57956;53.362;-1.518;2023-05-07T12:49:15;1.87;;;0.60;;
70477;SDS011;57956;53.362;-1.518;2023-05-07T12:51:40;2.07;;;0.40;;
70477;SDS011;57956;53.362;-1.518;2023-05-07T12:54:05;2.00;;;0.50;;
70477;SDS011;57956;53.362;-1.518;2023-05-07T12:56:31;1.63;;;0.38;;
70477;SDS011;57956;53.362;-1.518;2023-05-07T12:58:57;1.20;;;0.30;;
70477;SDS011;57956;53.362;-1.518;2023-05-07T13:01:22;1.75;;;0.40;;
70477;SDS011;57956;53.362;-1.518;2023-05-07T13:03:53;1.45;;;0.32;;
70477;SDS011;57956;53.362;-1.518;2023-05-07T13:06:18;4.50;;;0.40;;
70477;SDS011;57956;53.362;-1.518;2023-05-07T13:08:44;3.57;;;0.50;;
70477;SDS011;57956;53.362;-1.518;2023-05-07T13:11:09;2.60;;;0.80;;
70477;SDS011;57956;53.362;-1.518;2023-05-07T13:13:35;5.47;;;0.60;;
70477;SDS011;57956;53.362;-1.518;2023-05-07T13:16:01;3.57;;;0.50;;
70477;SDS011;57956;53.362;-1.518;2023-05-07T13:18:27;2.47;;;0.55;;
70477;SDS011;57956;53.362;-1.518;2023-05-07T13:20:52;1.67;;;0.40;;
70477;SDS011;57956;53.362;-1.518;2023-05-07T13:23:18;1.60;;;0.40;;
70477;SDS011;57956;53.362;-1.518;2023-05-07T13:25:43;2.50;;;0.50;;
70477;SDS011;57956;53.362;-1.518;2023-05-07T13:28:08;2.03;;;0.40;;
70477;SDS011;57956;53.362;-1.518;2023-05-07T13:30:34;2.08;;;0.35;;
70477;SDS011;57956;53.362;-1.518;2023-05-07T13:33:00;2.17;;;0.70;;
70477;SDS011;57956;53.362;-1.518;2023-05-07T13:35:25;4.43;;;0.77;;
70477;SDS011;57956;53.362;-1.518;2023-05-07T13:37:50;2.50;;;0.40;;
70477;SDS011;57956;53.362;-1.518;2023-05-07T13:40:17;2.53;;;0.80;;
70477;SDS011;57956;53.362;-1.518;2023-05-07T13:42:42;1.60;;;0.30;;
70477;SDS011;57956;53.362;-1.518;2023-05-07T13:45:07;2.03;;;0.50;;
70477;SDS011;57956;53.362;-1.518;2023-05-07T13:47:33;2.37;;;0.53;;
70477;SDS011;57956;53.362;-1.518;2023-05-07T13:49:58;2.00;;;0.60;;
70477;SDS011;57956;53.362;-1.518;2023-05-07T13:52:23;2.97;;;0.60;;
70477;SDS011;57956;53.362;-1.518;2023-05-07T13:54:49;2.13;;;0.53;;
70477;SDS011;57956;53.362;-1.518;2023-05-07T13:57:14;1.77;;;0.45;;
70477;SDS011;57956;53.362;-1.518;2023-05-07T13:59:40;2.73;;;0.50;;
70477;SDS011;57956;53.362;-1.518;2023-05-07T14:02:05;3.90;;;0.50;;
70477;SDS011;57956;53.362;-1.518;2023-05-07T14:04:31;1.90;;;0.43;;
70477;SDS011;57956;53.362;-1.518;2023-05-07T14:06:56;2.10;;;0.40;;
70477;SDS011;57956;53.362;-1.518;2023-05-07T14:09:21;4.37;;;0.50;;
70477;SDS011;57956;53.362;-1.518;2023-05-07T14:11:46;1.80;;;0.50;;
70477;SDS011;57956;53.362;-1.518;2023-05-07T14:14:12;4.57;;;0.60;;
70477;SDS011;57956;53.362;-1.518;2023-05-07T14:16:37;1.83;;;0.43;;
70477;SDS011;57956;53.362;-1.518;2023-05-07T14:19:03;1.77;;;0.53;;
70477;SDS011;57956;53.362;-1.518;2023-05-07T14:21:28;2.50;;;0.87;;
70477;SDS011;57956;53.362;-1.518;2023-05-07T14:23:53;1.77;;;0.30;;
70477;SDS011;57956;53.362;-1.518;2023-05-07T14:26:19;2.10;;;0.57;;
70477;SDS011;57956;53.362;-1.518;2023-05-07T14:28:44;2.35;;;0.40;;
70477;SDS011;57956;53.362;-1.518;2023-05-07T14:31:11;2.22;;;0.45;;
70477;SDS011;57956;53.362;-1.518;2023-05-07T14:33:36;1.50;;;0.30;;
70477;SDS011;57956;53.362;-1.518;2023-05-07T14:36:01;1.60;;;0.37;;
70477;SDS011;57956;53.362;-1.518;2023-05-07T14:38:28;2.20;;;0.60;;
70477;SDS011;57956;53.362;-1.518;2023-05-07T14:40:53;2.73;;;0.57;;